sensor_id;sensor_type;location;lat;lon;timestamp;P1;durP1;ratioP1;P2;durP2;ratioP2
2031;SDS011;27625;50.422;7.944;2023-06-14T00:00:00;7.60;;;5.27;;
2031;SDS011;27625;50.422;7.944;2023-06-14T00:02:31;7.13;;;5.37;;
2031;SDS011;27625;50.422;7.944;2023-06-14T00:04:59;7.33;;;5.03;;
2031;SDS011;27625;50.422;7.944;2023-06-14T00:07:36;8.10;;;5.30;;
2031;SDS011;27625;50.422;7.944;2023-06-14T00:10:08;6.93;;;5.20;;
2031;SDS011;27625;50.422;7.944;2023-06-14T00:12:37;7.70;;;5.70;;
2031;SDS011;27625;50.422;7.944;2023-06-14T00:15:05;8.30;;;5.73;;
2031;SDS011;27625;50.422;7.944;2023-06-14T00:17:34;7.50;;;5.17;;
2031;SDS011;27625;50.422;7.944;2023-06-14T00:20:02;7.70;;;5.20;;
2031;SDS011;27625;50.422;7.944;2023-06-14T00:22:31;6.70;;;4.80;;
2031;SDS011;27625;50.422;7.944;2023-06-14T00:24:58;7.73;;;5.40;;
2031;SDS011;27625;50.422;7.944;2023-06-14T00:27:25;7.60;;;5.70;;
2031;SDS011;27625;50.422;7.944;2023-06-14T00:29:54;8.33;;;5.60;;
2031;SDS011;27625;50.422;7.944;2023-06-14T00:32:22;9.23;;;5.17;;
2031;SDS011;27625;50.422;7.944;2023-06-14T00:34:52;6.87;;;5.10;;
2031;SDS011;27625;50.422;7.944;2023-06-14T00:37:21;7.27;;;5.33;;
2031;SDS011;27625;50.422;7.944;2023-06-14T00:39:49;8.00;;;4.67;;
2031;SDS011;27625;50.422;7.944;2023-06-14T00:42:24;7.33;;;5.07;;
2031;SDS011;27625;50.422;7.944;2023-06-14T00:44:51;8.13;;;4.50;;
2031;SDS011;27625;50.422;7.944;2023-06-14T00:47:21;7.20;;;5.70;;
2031;SDS011;27625;50.422;7.944;2023-06-14T00:49:48;6.53;;;5.07;;
2031;SDS011;27625;50.422;7.944;2023-06-14T00:52:24;7.60;;;5.33;;
2031;SDS011;27625;50.422;7.944;2023-06-14T00:54:52;11.03;;;5.00;;
2031;SDS011;27625;50.422;7.944;2023-06-14T00:57:21;8.60;;;5.33;;
2031;SDS011;27625;50.422;7.944;2023-06-14T00:59:51;6.20;;;4.53;;
2031;SDS011;27625;50.422;7.944;2023-06-14T01:02:22;8.10;;;4.80;;
2031;SDS011;27625;50.422;7.944;2023-06-14T01:04:49;7.93;;;5.20;;
2031;SDS011;27625;50.422;7.944;2023-06-14T01:07:19;6.80;;;5.10;;
2031;SDS011;27625;50.422;7.944;2023-06-14T01:09:58;6.10;;;4.60;;
2031;SDS011;27625;50.422;7.944;2023-06-14T01:12:35;6.83;;;4.83;;
2031;SDS011;27625;50.422;7.944;2023-06-14T01:15:08;9.37;;;5.60;;
2031;SDS011;27625;50.422;7.944;2023-06-14T01:17:45;8.80;;;5.20;;
2031;SDS011;27625;50.422;7.944;2023-06-14T01:20:14;6.40;;;4.80;;
2031;SDS011;27625;50.422;7.944;2023-06-14T01:22:50;9.07;;;5.80;;
2031;SDS011;27625;50.422;7.944;2023-06-14T01:25:17;7.23;;;4.20;;
2031;SDS011;27625;50.422;7.944;2023-06-14T01:27:47;8.60;;;4.80;;
2031;SDS011;27625;50.422;7.944;2023-06-14T01:30:15;6.60;;;4.63;;
2031;SDS011;27625;50.422;7.944;2023-06-14T01:32:44;7.37;;;5.80;;
2031;SDS011;27625;50.422;7.944;2023-06-14T01:35:19;7.20;;;4.73;;
2031;SDS011;27625;50.422;7.944;2023-06-14T01:37:49;9.40;;;5.17;;
2031;SDS011;27625;50.422;7.944;2023-06-14T01:40:17;7.03;;;4.57;;
2031;SDS011;27625;50.422;7.944;2023-06-14T01:42:46;7.47;;;4.93;;
2031;SDS011;27625;50.422;7.944;2023-06-14T01:45:17;5.33;;;4.40;;
2031;SDS011;27625;50.422;7.944;2023-06-14T01:47:46;9.83;;;4.97;;
2031;SDS011;27625;50.422;7.944;2023-06-14T01:50:15;6.10;;;4.20;;
2031;SDS011;27625;50.422;7.944;2023-06-14T01:52:50;8.13;;;5.07;;
2031;SDS011;27625;50.422;7.944;2023-06-14T01:55:18;9.13;;;5.33;;
2031;SDS011;27625;50.422;7.944;2023-06-14T01:57:53;7.30;;;5.23;;
2031;SDS011;27625;50.422;7.944;2023-06-14T02:00:21;9.23;;;4.60;;
2031;SDS011;27625;50.422;7.944;2023-06-14T02:02:52;7.83;;;5.00;;
2031;SDS011;27625;50.422;7.944;2023-06-14T02:05:20;7.83;;;5.50;;
2031;SDS011;27625;50.422;7.944;2023-06-14T02:07:48;6.60;;;4.93;;
2031;SDS011;27625;50.422;7.944;2023-06-14T02:10:18;6.70;;;5.10;;
2031;SDS011;27625;50.422;7.944;2023-06-14T02:12:47;7.30;;;5.20;;
2031;SDS011;27625;50.422;7.944;2023-06-14T02:15:15;9.17;;;5.40;;
2031;SDS011;27625;50.422;7.944;2023-06-14T02:17:44;7.20;;;4.97;;
2031;SDS011;27625;50.422;7.944;2023-06-14T02:20:12;10.73;;;5.70;;
2031;SDS011;27625;50.422;7.944;2023-06-14T02:22:40;6.73;;;4.63;;
2031;SDS011;27625;50.422;7.944;2023-06-14T02:25:09;10.43;;;5.17;;
2031;SDS011;27625;50.422;7.944;2023-06-14T02:27:36;16.87;;;5.50;;
2031;SDS011;27625;50.422;7.944;2023-06-14T02:30:10;7.07;;;4.90;;
2031;SDS011;27625;50.422;7.944;2023-06-14T02:32:38;5.90;;;4.53;;
2031;SDS011;27625;50.422;7.944;2023-06-14T02:35:22;7.20;;;4.03;;
2031;SDS011;27625;50.422;7.944;2023-06-14T02:37:55;7.40;;;4.70;;
2031;SDS011;27625;50.422;7.944;2023-06-14T02:40:31;6.03;;;4.30;;
2031;SDS011;27625;50.422;7.944;2023-06-14T02:42:58;6.17;;;4.50;;
2031;SDS011;27625;50.422;7.944;2023-06-14T02:45:31;7.47;;;5.00;;
2031;SDS011;27625;50.422;7.944;2023-06-14T02:48:02;7.70;;;4.43;;
2031;SDS011;27625;50.422;7.944;2023-06-14T02:50:33;7.40;;;4.50;;
2031;SDS011;27625;50.422;7.944;2023-06-14T02:53:01;7.67;;;4.40;;
2031;SDS011;27625;50.422;7.944;2023-06-14T02:55:29;6.80;;;4.33;;
2031;SDS011;27625;50.422;7.944;2023-06-14T02:57:59;5.90;;;4.37;;
2031;SDS011;27625;50.422;7.944;2023-06-14T03:00:27;6.23;;;3.93;;
2031;SDS011;27625;50.422;7.944;2023-06-14T03:03:03;6.70;;;4.60;;
2031;SDS011;27625;50.422;7.944;2023-06-14T03:05:31;7.23;;;4.70;;
2031;SDS011;27625;50.422;7.944;2023-06-14T03:07:58;7.13;;;3.77;;
2031;SDS011;27625;50.422;7.944;2023-06-14T03:10:26;7.83;;;4.37;;
2031;SDS011;27625;50.422;7.944;2023-06-14T03:15:27;6.73;;;4.50;;
2031;SDS011;27625;50.422;7.944;2023-06-14T03:17:56;6.70;;;4.50;;
2031;SDS011;27625;50.422;7.944;2023-06-14T03:20:24;8.50;;;4.60;;
2031;SDS011;27625;50.422;7.944;2023-06-14T03:22:55;5.67;;;3.80;;
2031;SDS011;27625;50.422;7.944;2023-06-14T03:25:22;7.67;;;4.73;;
2031;SDS011;27625;50.422;7.944;2023-06-14T03:27:51;7.60;;;4.10;;
2031;SDS011;27625;50.422;7.944;2023-06-14T03:30:22;6.77;;;4.40;;
2031;SDS011;27625;50.422;7.944;2023-06-14T03:32:53;8.30;;;4.43;;
2031;SDS011;27625;50.422;7.944;2023-06-14T03:35:34;8.53;;;4.80;;
2031;SDS011;27625;50.422;7.944;2023-06-14T03:38:03;6.50;;;4.23;;
2031;SDS011;27625;50.422;7.944;2023-06-14T03:40:30;7.00;;;4.53;;
2031;SDS011;27625;50.422;7.944;2023-06-14T03:43:05;8.00;;;4.50;;
2031;SDS011;27625;50.422;7.944;2023-06-14T03:45:35;6.63;;;4.60;;
2031;SDS011;27625;50.422;7.944;2023-06-14T03:48:11;6.53;;;4.77;;
2031;SDS011;27625;50.422;7.944;2023-06-14T03:50:40;6.73;;;5.00;;
2031;SDS011;27625;50.422;7.944;2023-06-14T03:53:09;8.63;;;4.30;;
2031;SDS011;27625;50.422;7.944;2023-06-14T03:55:40;6.80;;;4.70;;
2031;SDS011;27625;50.422;7.944;2023-06-14T03:58:07;10.67;;;4.67;;
2031;SDS011;27625;50.422;7.944;2023-06-14T04:00:38;7.77;;;4.20;;
2031;SDS011;27625;50.422;7.944;2023-06-14T04:03:17;10.33;;;6.03;;
2031;SDS011;27625;50.422;7.944;2023-06-14T04:05:49;7.60;;;4.77;;
2031;SDS011;27625;50.422;7.944;2023-06-14T04:08:18;6.97;;;4.00;;
2031;SDS011;27625;50.422;7.944;2023-06-14T04:10:47;7.53;;;3.90;;
2031;SDS011;27625;50.422;7.944;2023-06-14T04:13:19;6.27;;;4.30;;
2031;SDS011;27625;50.422;7.944;2023-06-14T04:15:49;12.23;;;4.10;;
2031;SDS011;27625;50.422;7.944;2023-06-14T04:18:28;10.93;;;4.87;;
2031;SDS011;27625;50.422;7.944;2023-06-14T04:21:00;6.50;;;4.27;;
2031;SDS011;27625;50.422;7.944;2023-06-14T04:23:28;9.80;;;4.20;;
2031;SDS011;27625;50.422;7.944;2023-06-14T04:25:56;6.60;;;4.27;;
2031;SDS011;27625;50.422;7.944;2023-06-14T04:28:28;7.33;;;3.93;;
2031;SDS011;27625;50.422;7.944;2023-06-14T04:30:59;8.33;;;3.93;;
2031;SDS011;27625;50.422;7.944;2023-06-14T04:33:33;10.90;;;4.13;;
2031;SDS011;27625;50.422;7.944;2023-06-14T04:36:09;10.03;;;4.70;;
2031;SDS011;27625;50.422;7.944;2023-06-14T04:38:37;6.93;;;3.93;;
2031;SDS011;27625;50.422;7.944;2023-06-14T04:41:16;16.87;;;4.27;;
2031;SDS011;27625;50.422;7.944;2023-06-14T04:43:44;7.03;;;4.57;;
2031;SDS011;27625;50.422;7.944;2023-06-14T04:46:24;8.97;;;4.10;;
2031;SDS011;27625;50.422;7.944;2023-06-14T04:48:56;5.40;;;3.87;;
2031;SDS011;27625;50.422;7.944;2023-06-14T04:51:34;10.30;;;4.50;;
2031;SDS011;27625;50.422;7.944;2023-06-14T04:54:05;6.10;;;4.00;;
2031;SDS011;27625;50.422;7.944;2023-06-14T04:56:38;7.93;;;4.33;;
2031;SDS011;27625;50.422;7.944;2023-06-14T04:59:05;5.87;;;3.80;;
2031;SDS011;27625;50.422;7.944;2023-06-14T05:01:34;7.17;;;4.30;;
2031;SDS011;27625;50.422;7.944;2023-06-14T05:04:12;5.50;;;4.00;;
2031;SDS011;27625;50.422;7.944;2023-06-14T05:06:40;6.27;;;4.00;;
2031;SDS011;27625;50.422;7.944;2023-06-14T05:09:06;4.10;;;3.23;;
2031;SDS011;27625;50.422;7.944;2023-06-14T05:11:40;8.90;;;5.70;;
2031;SDS011;27625;50.422;7.944;2023-06-14T05:14:21;6.87;;;3.70;;
2031;SDS011;27625;50.422;7.944;2023-06-14T05:16:58;6.70;;;4.47;;
2031;SDS011;27625;50.422;7.944;2023-06-14T05:19:25;6.93;;;3.93;;
2031;SDS011;27625;50.422;7.944;2023-06-14T05:21:53;5.20;;;3.90;;
2031;SDS011;27625;50.422;7.944;2023-06-14T05:24:21;5.90;;;4.13;;
2031;SDS011;27625;50.422;7.944;2023-06-14T05:26:55;5.83;;;3.90;;
2031;SDS011;27625;50.422;7.944;2023-06-14T05:29:23;6.00;;;3.77;;
2031;SDS011;27625;50.422;7.944;2023-06-14T05:31:53;4.47;;;3.63;;
2031;SDS011;27625;50.422;7.944;2023-06-14T05:34:23;4.70;;;3.63;;
2031;SDS011;27625;50.422;7.944;2023-06-14T05:36:54;9.03;;;4.70;;
2031;SDS011;27625;50.422;7.944;2023-06-14T05:39:38;7.13;;;3.87;;
2031;SDS011;27625;50.422;7.944;2023-06-14T05:42:05;4.27;;;3.40;;
2031;SDS011;27625;50.422;7.944;2023-06-14T05:44:42;7.77;;;3.73;;
2031;SDS011;27625;50.422;7.944;2023-06-14T05:47:10;4.93;;;3.73;;
2031;SDS011;27625;50.422;7.944;2023-06-14T05:49:40;5.20;;;3.70;;
2031;SDS011;27625;50.422;7.944;2023-06-14T05:52:09;5.30;;;3.60;;
2031;SDS011;27625;50.422;7.944;2023-06-14T05:57:12;5.90;;;3.87;;
2031;SDS011;27625;50.422;7.944;2023-06-14T05:59:45;10.87;;;4.27;;
2031;SDS011;27625;50.422;7.944;2023-06-14T06:02:19;6.53;;;3.83;;
2031;SDS011;27625;50.422;7.944;2023-06-14T06:04:52;5.80;;;4.30;;
2031;SDS011;27625;50.422;7.944;2023-06-14T06:07:21;5.13;;;3.57;;
2031;SDS011;27625;50.422;7.944;2023-06-14T06:09:50;8.27;;;3.80;;
2031;SDS011;27625;50.422;7.944;2023-06-14T06:12:19;5.90;;;3.70;;
2031;SDS011;27625;50.422;7.944;2023-06-14T06:14:48;6.30;;;3.57;;
2031;SDS011;27625;50.422;7.944;2023-06-14T06:17:15;4.87;;;3.40;;
2031;SDS011;27625;50.422;7.944;2023-06-14T06:19:41;7.53;;;3.67;;
2031;SDS011;27625;50.422;7.944;2023-06-14T06:22:10;12.60;;;4.13;;
2031;SDS011;27625;50.422;7.944;2023-06-14T06:24:37;7.30;;;3.77;;
2031;SDS011;27625;50.422;7.944;2023-06-14T06:27:05;4.80;;;3.50;;
2031;SDS011;27625;50.422;7.944;2023-06-14T06:29:33;8.97;;;3.57;;
2031;SDS011;27625;50.422;7.944;2023-06-14T06:32:03;4.93;;;3.67;;
2031;SDS011;27625;50.422;7.944;2023-06-14T06:34:35;5.90;;;3.60;;
2031;SDS011;27625;50.422;7.944;2023-06-14T06:37:06;4.50;;;3.60;;
2031;SDS011;27625;50.422;7.944;2023-06-14T06:39:36;6.70;;;3.63;;
2031;SDS011;27625;50.422;7.944;2023-06-14T06:42:03;7.43;;;3.80;;
2031;SDS011;27625;50.422;7.944;2023-06-14T06:44:35;12.47;;;3.60;;
2031;SDS011;27625;50.422;7.944;2023-06-14T06:47:03;5.00;;;3.87;;
2031;SDS011;27625;50.422;7.944;2023-06-14T06:49:30;5.93;;;4.10;;
2031;SDS011;27625;50.422;7.944;2023-06-14T06:52:00;5.40;;;3.40;;
2031;SDS011;27625;50.422;7.944;2023-06-14T06:54:34;4.83;;;3.50;;
2031;SDS011;27625;50.422;7.944;2023-06-14T06:57:02;10.60;;;3.63;;
2031;SDS011;27625;50.422;7.944;2023-06-14T06:59:31;5.03;;;3.63;;
2031;SDS011;27625;50.422;7.944;2023-06-14T07:02:00;4.10;;;3.17;;
2031;SDS011;27625;50.422;7.944;2023-06-14T07:04:29;8.23;;;3.77;;
2031;SDS011;27625;50.422;7.944;2023-06-14T07:07:03;4.70;;;3.00;;
2031;SDS011;27625;50.422;7.944;2023-06-14T07:09:32;6.77;;;3.10;;
2031;SDS011;27625;50.422;7.944;2023-06-14T07:12:03;6.53;;;3.17;;
2031;SDS011;27625;50.422;7.944;2023-06-14T07:14:31;4.40;;;3.30;;
2031;SDS011;27625;50.422;7.944;2023-06-14T07:17:06;5.63;;;3.50;;
2031;SDS011;27625;50.422;7.944;2023-06-14T07:19:36;6.13;;;3.10;;
2031;SDS011;27625;50.422;7.944;2023-06-14T07:22:04;4.93;;;3.53;;
2031;SDS011;27625;50.422;7.944;2023-06-14T07:24:31;4.53;;;2.97;;
2031;SDS011;27625;50.422;7.944;2023-06-14T07:27:01;4.20;;;3.07;;
2031;SDS011;27625;50.422;7.944;2023-06-14T07:29:30;4.73;;;2.97;;
2031;SDS011;27625;50.422;7.944;2023-06-14T07:31:58;3.60;;;2.80;;
2031;SDS011;27625;50.422;7.944;2023-06-14T07:34:25;3.80;;;3.10;;
2031;SDS011;27625;50.422;7.944;2023-06-14T07:36:53;5.50;;;3.13;;
2031;SDS011;27625;50.422;7.944;2023-06-14T07:39:21;7.60;;;2.50;;
2031;SDS011;27625;50.422;7.944;2023-06-14T07:41:50;3.93;;;2.70;;
2031;SDS011;27625;50.422;7.944;2023-06-14T07:44:19;4.30;;;3.03;;
2031;SDS011;27625;50.422;7.944;2023-06-14T07:46:49;4.60;;;3.10;;
2031;SDS011;27625;50.422;7.944;2023-06-14T07:49:23;6.27;;;2.97;;
2031;SDS011;27625;50.422;7.944;2023-06-14T07:51:51;4.93;;;3.13;;
2031;SDS011;27625;50.422;7.944;2023-06-14T07:54:24;4.33;;;2.93;;
2031;SDS011;27625;50.422;7.944;2023-06-14T07:56:53;6.80;;;2.90;;
2031;SDS011;27625;50.422;7.944;2023-06-14T07:59:22;4.80;;;3.10;;
2031;SDS011;27625;50.422;7.944;2023-06-14T08:01:49;3.70;;;2.87;;
2031;SDS011;27625;50.422;7.944;2023-06-14T08:04:28;4.27;;;2.93;;
2031;SDS011;27625;50.422;7.944;2023-06-14T08:07:05;4.10;;;2.93;;
2031;SDS011;27625;50.422;7.944;2023-06-14T08:09:35;5.07;;;3.40;;
2031;SDS011;27625;50.422;7.944;2023-06-14T08:12:17;4.43;;;2.90;;
2031;SDS011;27625;50.422;7.944;2023-06-14T08:17:17;6.43;;;2.83;;
2031;SDS011;27625;50.422;7.944;2023-06-14T08:19:44;5.27;;;2.70;;
2031;SDS011;27625;50.422;7.944;2023-06-14T08:22:12;5.33;;;2.47;;
2031;SDS011;27625;50.422;7.944;2023-06-14T08:24:40;5.50;;;2.70;;
2031;SDS011;27625;50.422;7.944;2023-06-14T08:27:10;3.37;;;2.30;;
2031;SDS011;27625;50.422;7.944;2023-06-14T08:29:46;4.57;;;2.60;;
2031;SDS011;27625;50.422;7.944;2023-06-14T08:32:17;4.87;;;2.37;;
2031;SDS011;27625;50.422;7.944;2023-06-14T08:34:44;6.90;;;2.47;;
2031;SDS011;27625;50.422;7.944;2023-06-14T08:37:12;4.57;;;2.47;;
2031;SDS011;27625;50.422;7.944;2023-06-14T08:39:39;4.30;;;2.23;;
2031;SDS011;27625;50.422;7.944;2023-06-14T08:42:09;3.90;;;2.40;;
2031;SDS011;27625;50.422;7.944;2023-06-14T08:47:10;3.70;;;2.50;;
2031;SDS011;27625;50.422;7.944;2023-06-14T08:49:40;4.47;;;2.10;;
2031;SDS011;27625;50.422;7.944;2023-06-14T08:52:14;4.40;;;2.80;;
2031;SDS011;27625;50.422;7.944;2023-06-14T08:54:45;5.00;;;2.30;;
2031;SDS011;27625;50.422;7.944;2023-06-14T08:57:14;4.80;;;2.80;;
2031;SDS011;27625;50.422;7.944;2023-06-14T08:59:45;3.77;;;2.50;;
2031;SDS011;27625;50.422;7.944;2023-06-14T09:02:16;4.57;;;2.90;;
2031;SDS011;27625;50.422;7.944;2023-06-14T09:04:47;4.27;;;2.80;;
2031;SDS011;27625;50.422;7.944;2023-06-14T09:07:15;4.90;;;2.73;;
2031;SDS011;27625;50.422;7.944;2023-06-14T09:09:42;5.13;;;2.50;;
2031;SDS011;27625;50.422;7.944;2023-06-14T09:12:11;5.00;;;2.60;;
2031;SDS011;27625;50.422;7.944;2023-06-14T09:14:38;9.57;;;3.00;;
2031;SDS011;27625;50.422;7.944;2023-06-14T09:19:46;3.97;;;2.70;;
2031;SDS011;27625;50.422;7.944;2023-06-14T09:22:14;6.83;;;2.53;;
2031;SDS011;27625;50.422;7.944;2023-06-14T09:24:47;3.50;;;2.20;;
2031;SDS011;27625;50.422;7.944;2023-06-14T09:27:22;5.33;;;3.00;;
2031;SDS011;27625;50.422;7.944;2023-06-14T09:29:52;5.43;;;2.77;;
2031;SDS011;27625;50.422;7.944;2023-06-14T09:32:21;4.27;;;2.40;;
2031;SDS011;27625;50.422;7.944;2023-06-14T09:34:50;3.70;;;2.50;;
2031;SDS011;27625;50.422;7.944;2023-06-14T09:37:27;3.83;;;2.10;;
2031;SDS011;27625;50.422;7.944;2023-06-14T09:39:56;4.37;;;2.50;;
2031;SDS011;27625;50.422;7.944;2023-06-14T09:42:23;3.63;;;2.07;;
2031;SDS011;27625;50.422;7.944;2023-06-14T09:44:54;3.07;;;2.03;;
2031;SDS011;27625;50.422;7.944;2023-06-14T09:47:21;3.10;;;2.10;;
2031;SDS011;27625;50.422;7.944;2023-06-14T09:49:51;3.37;;;2.27;;
2031;SDS011;27625;50.422;7.944;2023-06-14T09:52:20;3.70;;;2.30;;
2031;SDS011;27625;50.422;7.944;2023-06-14T09:54:53;7.00;;;2.30;;
2031;SDS011;27625;50.422;7.944;2023-06-14T09:57:21;4.50;;;2.70;;
2031;SDS011;27625;50.422;7.944;2023-06-14T09:59:51;3.20;;;1.93;;
2031;SDS011;27625;50.422;7.944;2023-06-14T10:02:21;4.20;;;2.20;;
2031;SDS011;27625;50.422;7.944;2023-06-14T10:04:55;3.13;;;2.27;;
2031;SDS011;27625;50.422;7.944;2023-06-14T10:07:26;2.80;;;1.97;;
2031;SDS011;27625;50.422;7.944;2023-06-14T10:09:57;3.80;;;1.83;;
2031;SDS011;27625;50.422;7.944;2023-06-14T10:12:24;3.30;;;1.97;;
2031;SDS011;27625;50.422;7.944;2023-06-14T10:14:58;4.67;;;2.23;;
2031;SDS011;27625;50.422;7.944;2023-06-14T10:17:31;3.07;;;2.17;;
2031;SDS011;27625;50.422;7.944;2023-06-14T10:22:52;3.70;;;2.53;;
2031;SDS011;27625;50.422;7.944;2023-06-14T10:25:27;3.57;;;2.37;;
2031;SDS011;27625;50.422;7.944;2023-06-14T10:31:06;4.10;;;2.83;;
2031;SDS011;27625;50.422;7.944;2023-06-14T10:33:35;4.43;;;3.07;;
2031;SDS011;27625;50.422;7.944;2023-06-14T10:39:00;4.10;;;3.00;;
2031;SDS011;27625;50.422;7.944;2023-06-14T10:41:36;4.33;;;2.87;;
2031;SDS011;27625;50.422;7.944;2023-06-14T10:47:09;5.33;;;2.43;;
2031;SDS011;27625;50.422;7.944;2023-06-14T10:49:39;8.13;;;3.20;;
2031;SDS011;27625;50.422;7.944;2023-06-14T10:52:09;4.50;;;3.10;;
2031;SDS011;27625;50.422;7.944;2023-06-14T10:57:38;3.50;;;2.40;;
2031;SDS011;27625;50.422;7.944;2023-06-14T11:00:07;4.33;;;2.90;;
2031;SDS011;27625;50.422;7.944;2023-06-14T11:02:46;4.10;;;3.00;;
2031;SDS011;27625;50.422;7.944;2023-06-14T11:05:23;4.63;;;3.07;;
2031;SDS011;27625;50.422;7.944;2023-06-14T11:08:02;3.40;;;2.50;;
2031;SDS011;27625;50.422;7.944;2023-06-14T11:10:52;6.10;;;3.20;;
2031;SDS011;27625;50.422;7.944;2023-06-14T11:13:23;6.20;;;3.30;;
2031;SDS011;27625;50.422;7.944;2023-06-14T11:15:51;4.07;;;2.83;;
2031;SDS011;27625;50.422;7.944;2023-06-14T11:18:22;5.30;;;3.37;;
2031;SDS011;27625;50.422;7.944;2023-06-14T11:20:56;5.93;;;3.40;;
2031;SDS011;27625;50.422;7.944;2023-06-14T11:23:24;4.93;;;2.97;;
2031;SDS011;27625;50.422;7.944;2023-06-14T11:25:52;7.43;;;3.50;;
2031;SDS011;27625;50.422;7.944;2023-06-14T11:28:21;4.10;;;3.10;;
2031;SDS011;27625;50.422;7.944;2023-06-14T11:30:59;4.30;;;2.73;;
2031;SDS011;27625;50.422;7.944;2023-06-14T11:33:27;6.63;;;3.47;;
2031;SDS011;27625;50.422;7.944;2023-06-14T11:35:56;9.67;;;3.47;;
2031;SDS011;27625;50.422;7.944;2023-06-14T11:38:34;8.97;;;3.17;;
2031;SDS011;27625;50.422;7.944;2023-06-14T11:41:19;4.97;;;3.50;;
2031;SDS011;27625;50.422;7.944;2023-06-14T11:43:55;4.00;;;3.03;;
2031;SDS011;27625;50.422;7.944;2023-06-14T11:46:25;5.50;;;3.27;;
2031;SDS011;27625;50.422;7.944;2023-06-14T11:48:52;4.20;;;3.33;;
2031;SDS011;27625;50.422;7.944;2023-06-14T11:51:21;4.40;;;2.70;;
2031;SDS011;27625;50.422;7.944;2023-06-14T11:53:54;4.17;;;2.73;;
2031;SDS011;27625;50.422;7.944;2023-06-14T11:56:27;4.10;;;3.10;;
2031;SDS011;27625;50.422;7.944;2023-06-14T11:58:58;4.20;;;3.13;;
2031;SDS011;27625;50.422;7.944;2023-06-14T12:04:03;3.93;;;2.80;;
2031;SDS011;27625;50.422;7.944;2023-06-14T12:06:31;3.73;;;2.83;;
2031;SDS011;27625;50.422;7.944;2023-06-14T12:09:06;4.43;;;3.17;;
2031;SDS011;27625;50.422;7.944;2023-06-14T12:11:38;5.90;;;2.97;;
2031;SDS011;27625;50.422;7.944;2023-06-14T12:17:03;3.27;;;2.60;;
2031;SDS011;27625;50.422;7.944;2023-06-14T12:19:31;4.10;;;2.43;;
2031;SDS011;27625;50.422;7.944;2023-06-14T12:21:59;5.47;;;2.90;;
2031;SDS011;27625;50.422;7.944;2023-06-14T12:24:28;6.60;;;3.20;;
2031;SDS011;27625;50.422;7.944;2023-06-14T12:26:57;5.23;;;2.80;;
2031;SDS011;27625;50.422;7.944;2023-06-14T12:29:27;4.67;;;2.63;;
2031;SDS011;27625;50.422;7.944;2023-06-14T12:31:58;4.70;;;2.90;;
2031;SDS011;27625;50.422;7.944;2023-06-14T12:34:24;3.60;;;2.40;;
2031;SDS011;27625;50.422;7.944;2023-06-14T12:39:25;5.50;;;2.67;;
2031;SDS011;27625;50.422;7.944;2023-06-14T12:41:54;4.23;;;2.83;;
2031;SDS011;27625;50.422;7.944;2023-06-14T12:44:21;4.37;;;2.90;;
2031;SDS011;27625;50.422;7.944;2023-06-14T12:46:49;7.17;;;2.73;;
2031;SDS011;27625;50.422;7.944;2023-06-14T12:49:27;4.40;;;2.70;;
2031;SDS011;27625;50.422;7.944;2023-06-14T12:54:23;4.60;;;2.77;;
2031;SDS011;27625;50.422;7.944;2023-06-14T12:56:52;4.90;;;3.03;;
2031;SDS011;27625;50.422;7.944;2023-06-14T12:59:21;4.10;;;3.10;;
2031;SDS011;27625;50.422;7.944;2023-06-14T13:01:57;3.30;;;2.60;;
2031;SDS011;27625;50.422;7.944;2023-06-14T13:04:31;4.00;;;2.90;;
2031;SDS011;27625;50.422;7.944;2023-06-14T13:06:58;5.63;;;2.87;;
2031;SDS011;27625;50.422;7.944;2023-06-14T13:09:25;4.03;;;2.80;;
2031;SDS011;27625;50.422;7.944;2023-06-14T13:14:53;5.20;;;3.20;;
2031;SDS011;27625;50.422;7.944;2023-06-14T13:17:27;5.13;;;2.80;;
2031;SDS011;27625;50.422;7.944;2023-06-14T13:19:53;3.97;;;3.03;;
2031;SDS011;27625;50.422;7.944;2023-06-14T13:22:24;5.63;;;3.03;;
2031;SDS011;27625;50.422;7.944;2023-06-14T13:27:24;4.27;;;2.90;;
2031;SDS011;27625;50.422;7.944;2023-06-14T13:29:54;6.70;;;3.03;;
2031;SDS011;27625;50.422;7.944;2023-06-14T13:32:23;4.70;;;3.17;;
2031;SDS011;27625;50.422;7.944;2023-06-14T13:34:52;4.53;;;2.80;;
2031;SDS011;27625;50.422;7.944;2023-06-14T13:37:18;3.80;;;2.90;;
2031;SDS011;27625;50.422;7.944;2023-06-14T13:39:47;4.70;;;3.10;;
2031;SDS011;27625;50.422;7.944;2023-06-14T13:47:41;3.57;;;2.50;;
2031;SDS011;27625;50.422;7.944;2023-06-14T13:50:16;3.73;;;2.90;;
2031;SDS011;27625;50.422;7.944;2023-06-14T13:52:42;4.63;;;3.10;;
2031;SDS011;27625;50.422;7.944;2023-06-14T13:55:12;4.50;;;2.60;;
2031;SDS011;27625;50.422;7.944;2023-06-14T13:57:40;5.17;;;3.03;;
2031;SDS011;27625;50.422;7.944;2023-06-14T14:00:07;5.40;;;3.10;;
2031;SDS011;27625;50.422;7.944;2023-06-14T14:02:39;4.00;;;2.83;;
2031;SDS011;27625;50.422;7.944;2023-06-14T14:05:08;5.80;;;2.90;;
2031;SDS011;27625;50.422;7.944;2023-06-14T14:07:36;3.97;;;2.80;;
2031;SDS011;27625;50.422;7.944;2023-06-14T14:10:03;4.87;;;2.90;;
2031;SDS011;27625;50.422;7.944;2023-06-14T14:12:30;4.93;;;2.90;;
2031;SDS011;27625;50.422;7.944;2023-06-14T14:14:58;3.97;;;2.97;;
2031;SDS011;27625;50.422;7.944;2023-06-14T14:17:25;3.57;;;2.80;;
2031;SDS011;27625;50.422;7.944;2023-06-14T14:19:54;5.70;;;3.07;;
2031;SDS011;27625;50.422;7.944;2023-06-14T14:22:22;4.33;;;2.97;;
2031;SDS011;27625;50.422;7.944;2023-06-14T14:24:49;6.20;;;3.00;;
2031;SDS011;27625;50.422;7.944;2023-06-14T14:27:17;3.60;;;2.73;;
2031;SDS011;27625;50.422;7.944;2023-06-14T14:29:45;4.30;;;2.93;;
2031;SDS011;27625;50.422;7.944;2023-06-14T14:32:18;4.60;;;3.10;;
2031;SDS011;27625;50.422;7.944;2023-06-14T14:34:45;4.07;;;3.47;;
2031;SDS011;27625;50.422;7.944;2023-06-14T14:37:14;4.07;;;3.07;;
2031;SDS011;27625;50.422;7.944;2023-06-14T14:39:43;4.40;;;2.80;;
2031;SDS011;27625;50.422;7.944;2023-06-14T14:42:11;4.10;;;3.03;;
2031;SDS011;27625;50.422;7.944;2023-06-14T14:44:38;5.40;;;2.97;;
2031;SDS011;27625;50.422;7.944;2023-06-14T14:47:05;6.83;;;3.03;;
2031;SDS011;27625;50.422;7.944;2023-06-14T14:49:33;3.77;;;2.57;;
2031;SDS011;27625;50.422;7.944;2023-06-14T14:52:01;4.83;;;3.10;;
2031;SDS011;27625;50.422;7.944;2023-06-14T14:54:29;4.20;;;3.07;;
2031;SDS011;27625;50.422;7.944;2023-06-14T14:57:03;6.10;;;3.37;;
2031;SDS011;27625;50.422;7.944;2023-06-14T14:59:30;6.83;;;2.90;;
2031;SDS011;27625;50.422;7.944;2023-06-14T15:01:58;3.67;;;2.73;;
2031;SDS011;27625;50.422;7.944;2023-06-14T15:04:25;6.33;;;2.93;;
2031;SDS011;27625;50.422;7.944;2023-06-14T15:06:54;6.13;;;2.80;;
2031;SDS011;27625;50.422;7.944;2023-06-14T15:09:22;3.63;;;2.70;;
2031;SDS011;27625;50.422;7.944;2023-06-14T15:11:56;3.83;;;2.70;;
2031;SDS011;27625;50.422;7.944;2023-06-14T15:14:24;5.30;;;2.87;;
2031;SDS011;27625;50.422;7.944;2023-06-14T15:16:55;4.20;;;3.10;;
2031;SDS011;27625;50.422;7.944;2023-06-14T15:19:24;4.40;;;2.50;;
2031;SDS011;27625;50.422;7.944;2023-06-14T15:21:50;3.97;;;2.90;;
2031;SDS011;27625;50.422;7.944;2023-06-14T15:24:24;4.47;;;3.07;;
2031;SDS011;27625;50.422;7.944;2023-06-14T15:27:00;5.07;;;3.00;;
2031;SDS011;27625;50.422;7.944;2023-06-14T15:29:35;3.30;;;2.67;;
2031;SDS011;27625;50.422;7.944;2023-06-14T15:32:03;5.30;;;3.37;;
2031;SDS011;27625;50.422;7.944;2023-06-14T15:34:32;5.30;;;3.30;;
2031;SDS011;27625;50.422;7.944;2023-06-14T15:37:01;6.37;;;3.00;;
2031;SDS011;27625;50.422;7.944;2023-06-14T15:39:28;4.37;;;2.60;;
2031;SDS011;27625;50.422;7.944;2023-06-14T15:41:58;5.83;;;3.10;;
2031;SDS011;27625;50.422;7.944;2023-06-14T15:44:27;3.90;;;3.10;;
2031;SDS011;27625;50.422;7.944;2023-06-14T15:46:54;6.40;;;2.93;;
2031;SDS011;27625;50.422;7.944;2023-06-14T15:49:23;4.50;;;2.93;;
2031;SDS011;27625;50.422;7.944;2023-06-14T15:51:52;5.50;;;3.07;;
2031;SDS011;27625;50.422;7.944;2023-06-14T15:54:20;4.73;;;3.03;;
2031;SDS011;27625;50.422;7.944;2023-06-14T15:56:47;4.10;;;3.20;;
2031;SDS011;27625;50.422;7.944;2023-06-14T15:59:16;4.00;;;3.07;;
2031;SDS011;27625;50.422;7.944;2023-06-14T16:01:44;4.37;;;3.03;;
2031;SDS011;27625;50.422;7.944;2023-06-14T16:04:11;4.73;;;3.40;;
2031;SDS011;27625;50.422;7.944;2023-06-14T16:06:38;4.60;;;3.20;;